sensor_id;sensor_type;location;lat;lon;timestamp;pressure;altitude;pressure_sealevel;temperature;humidity
51239;BME280;38154;47.548;18.828;2024-03-06T00:01:38;98547.28;;;5.56;100.00
51239;BME280;38154;47.548;18.828;2024-03-06T00:04:04;98553.19;;;5.47;100.00
51239;BME280;38154;47.548;18.828;2024-03-06T00:06:30;98553.78;;;5.32;100.00
51239;BME280;38154;47.548;18.828;2024-03-06T00:08:56;98557.91;;;5.23;100.00
51239;BME280;38154;47.548;18.828;2024-03-06T00:11:22;98557.75;;;5.15;100.00
51239;BME280;38154;47.548;18.828;2024-03-06T00:13:47;98557.66;;;5.10;100.00
51239;BME280;38154;47.548;18.828;2024-03-06T00:16:13;98560.16;;;5.06;100.00
51239;BME280;38154;47.548;18.828;2024-03-06T00:18:39;98557.53;;;5.04;100.00
51239;BME280;38154;47.548;18.828;2024-03-06T00:21:05;98560.72;;;4.91;100.00
51239;BME280;38154;47.548;18.828;2024-03-06T00:23:32;98562.50;;;4.93;100.00
51239;BME280;38154;47.548;18.828;2024-03-06T00:25:57;98560.66;;;4.86;100.00
51239;BME280;38154;47.548;18.828;2024-03-06T00:28:23;98555.16;;;4.72;100.00
51239;BME280;38154;47.548;18.828;2024-03-06T00:30:49;98555.88;;;4.65;100.00
51239;BME280;38154;47.548;18.828;2024-03-06T00:33:15;98543.88;;;4.67;100.00
51239;BME280;38154;47.548;18.828;2024-03-06T00:35:40;98546.66;;;4.76;100.00
51239;BME280;38154;47.548;18.828;2024-03-06T00:38:06;98543.13;;;4.71;100.00
51239;BME280;38154;47.548;18.828;2024-03-06T00:40:32;98536.03;;;4.62;100.00
51239;BME280;38154;47.548;18.828;2024-03-06T00:42:58;98550.53;;;4.57;100.00
51239;BME280;38154;47.548;18.828;2024-03-06T00:45:24;98550.47;;;4.53;100.00
51239;BME280;38154;47.548;18.828;2024-03-06T00:47:50;98553.09;;;4.54;100.00
51239;BME280;38154;47.548;18.828;2024-03-06T00:50:15;98550.09;;;4.37;100.00
51239;BME280;38154;47.548;18.828;2024-03-06T00:52:42;98544.19;;;4.41;100.00
51239;BME280;38154;47.548;18.828;2024-03-06T00:55:08;98535.25;;;4.27;100.00
51239;BME280;38154;47.548;18.828;2024-03-06T00:57:34;98542.03;;;4.22;100.00
51239;BME280;38154;47.548;18.828;2024-03-06T00:59:59;98544.50;;;4.17;100.00
51239;BME280;38154;47.548;18.828;2024-03-06T01:02:25;98544.34;;;4.09;100.00
51239;BME280;38154;47.548;18.828;2024-03-06T01:04:51;98546.91;;;4.09;100.00
51239;BME280;38154;47.548;18.828;2024-03-06T01:07:16;98548.53;;;4.04;100.00
51239;BME280;38154;47.548;18.828;2024-03-06T01:09:42;98545.78;;;3.98;100.00
51239;BME280;38154;47.548;18.828;2024-03-06T01:12:08;98542.09;;;3.88;100.00
51239;BME280;38154;47.548;18.828;2024-03-06T01:14:33;98547.75;;;3.72;100.00
51239;BME280;38154;47.548;18.828;2024-03-06T01:16:59;98545.06;;;3.67;100.00
51239;BME280;38154;47.548;18.828;2024-03-06T01:19:25;98553.34;;;3.56;100.00
51239;BME280;38154;47.548;18.828;2024-03-06T01:21:50;98557.41;;;3.46;100.00
51239;BME280;38154;47.548;18.828;2024-03-06T01:24:16;98561.47;;;3.38;100.00
51239;BME280;38154;47.548;18.828;2024-03-06T01:26:42;98558.28;;;3.48;100.00
51239;BME280;38154;47.548;18.828;2024-03-06T01:29:07;98556.50;;;3.44;100.00
51239;BME280;38154;47.548;18.828;2024-03-06T01:31:33;98556.22;;;3.68;100.00
51239;BME280;38154;47.548;18.828;2024-03-06T01:33:59;98559.56;;;3.64;100.00
51239;BME280;38154;47.548;18.828;2024-03-06T01:36:24;98557.91;;;3.66;100.00
51239;BME280;38154;47.548;18.828;2024-03-06T01:38:50;98555.28;;;3.64;100.00
51239;BME280;38154;47.548;18.828;2024-03-06T01:41:16;98553.31;;;3.54;100.00
51239;BME280;38154;47.548;18.828;2024-03-06T01:43:41;98553.00;;;3.43;100.00
51239;BME280;38154;47.548;18.828;2024-03-06T01:46:07;98559.66;;;3.35;100.00
51239;BME280;38154;47.548;18.828;2024-03-06T01:48:33;98555.28;;;3.31;100.00
51239;BME280;38154;47.548;18.828;2024-03-06T01:50:59;98551.41;;;3.15;100.00
51239;BME280;38154;47.548;18.828;2024-03-06T01:53:28;98553.84;;;3.09;100.00
51239;BME280;38154;47.548;18.828;2024-03-06T01:55:55;98553.63;;;3.01;100.00
51239;BME280;38154;47.548;18.828;2024-03-06T01:58:21;98559.38;;;2.92;100.00
51239;BME280;38154;47.548;18.828;2024-03-06T02:00:49;98547.22;;;2.87;100.00
51239;BME280;38154;47.548;18.828;2024-03-06T02:03:15;98550.66;;;2.87;100.00
51239;BME280;38154;47.548;18.828;2024-03-06T02:05:41;98548.75;;;2.80;100.00
51239;BME280;38154;47.548;18.828;2024-03-06T02:08:07;98370.84;;;1.77;100.00
51239;BME280;38154;47.548;18.828;2024-03-06T02:10:33;75678.19;;;-145.55;100.00
51239;BME280;38154;47.548;18.828;2024-03-06T02:12:59;75686.13;;;-145.55;100.00
51239;BME280;38154;47.548;18.828;2024-03-06T02:15:25;75680.16;;;-145.55;100.00
51239;BME280;38154;47.548;18.828;2024-03-06T02:17:51;75676.19;;;-145.55;100.00
51239;BME280;38154;47.548;18.828;2024-03-06T02:20:24;75670.22;;;-145.55;100.00
51239;BME280;38154;47.548;18.828;2024-03-06T02:22:50;75678.19;;;-145.55;100.00
51239;BME280;38154;47.548;18.828;2024-03-06T02:25:16;75684.16;;;-145.55;100.00
51239;BME280;38154;47.548;18.828;2024-03-06T02:27:42;75694.09;;;-145.55;100.00
51239;BME280;38154;47.548;18.828;2024-03-06T02:30:08;75700.06;;;-145.55;100.00
51239;BME280;38154;47.548;18.828;2024-03-06T02:32:34;75694.09;;;-145.55;100.00
51239;BME280;38154;47.548;18.828;2024-03-06T02:35:01;75706.03;;;-145.55;100.00
51239;BME280;38154;47.548;18.828;2024-03-06T02:37:28;75694.09;;;-145.55;100.00
51239;BME280;38154;47.548;18.828;2024-03-06T02:39:53;75714.00;;;-145.55;100.00
51239;BME280;38154;47.548;18.828;2024-03-06T02:42:19;75727.94;;;-145.55;100.00
51239;BME280;38154;47.548;18.828;2024-03-06T02:44:45;75727.94;;;-145.55;100.00
51239;BME280;38154;47.548;18.828;2024-03-06T02:47:10;75682.16;;;-145.55;100.00
51239;BME280;38154;47.548;18.828;2024-03-06T02:49:36;75644.34;;;-145.55;100.00
51239;BME280;38154;47.548;18.828;2024-03-06T02:52:02;75642.34;;;-145.55;100.00
51239;BME280;38154;47.548;18.828;2024-03-06T02:54:27;75652.31;;;-145.55;100.00
51239;BME280;38154;47.548;18.828;2024-03-06T02:56:53;75678.19;;;-145.55;100.00
51239;BME280;38154;47.548;18.828;2024-03-06T02:59:19;75704.06;;;-145.55;100.00
51239;BME280;38154;47.548;18.828;2024-03-06T03:01:45;75723.94;;;-145.55;100.00
51239;BME280;38154;47.548;18.828;2024-03-06T03:04:10;75725.94;;;-145.55;100.00
51239;BME280;38154;47.548;18.828;2024-03-06T03:06:36;75723.94;;;-145.55;100.00
51239;BME280;38154;47.548;18.828;2024-03-06T03:09:02;75737.88;;;-145.55;100.00
51239;BME280;38154;47.548;18.828;2024-03-06T03:11:29;75761.78;;;-145.55;100.00
51239;BME280;38154;47.548;18.828;2024-03-06T03:13:55;75767.75;;;-145.55;100.00
51239;BME280;38154;47.548;18.828;2024-03-06T03:16:21;75783.66;;;-145.55;100.00
51239;BME280;38154;47.548;18.828;2024-03-06T03:18:47;75791.63;;;-145.55;100.00
51239;BME280;38154;47.548;18.828;2024-03-06T03:21:13;75795.59;;;-145.55;100.00
51239;BME280;38154;47.548;18.828;2024-03-06T03:23:39;75789.63;;;-145.55;100.00
51239;BME280;38154;47.548;18.828;2024-03-06T03:26:05;75763.75;;;-145.55;100.00
51239;BME280;38154;47.548;18.828;2024-03-06T03:28:31;75749.81;;;-145.55;100.00
51239;BME280;38154;47.548;18.828;2024-03-06T03:30:58;75745.84;;;-145.55;100.00
51239;BME280;38154;47.548;18.828;2024-03-06T03:33:23;75753.81;;;-145.55;100.00
51239;BME280;38154;47.548;18.828;2024-03-06T03:35:49;75767.75;;;-145.55;100.00
51239;BME280;38154;47.548;18.828;2024-03-06T03:38:15;75795.59;;;-145.55;100.00
51239;BME280;38154;47.548;18.828;2024-03-06T03:40:42;75807.53;;;-145.55;100.00
51239;BME280;38154;47.548;18.828;2024-03-06T03:43:07;75797.59;;;-145.55;100.00
51239;BME280;38154;47.548;18.828;2024-03-06T03:45:34;75795.59;;;-145.55;100.00
51239;BME280;38154;47.548;18.828;2024-03-06T03:48:00;75783.66;;;-145.55;100.00
51239;BME280;38154;47.548;18.828;2024-03-06T03:50:28;75801.56;;;-145.55;100.00
51239;BME280;38154;47.548;18.828;2024-03-06T03:52:55;75817.50;;;-145.55;100.00
51239;BME280;38154;47.548;18.828;2024-03-06T03:55:23;75827.44;;;-145.55;100.00
51239;BME280;38154;47.548;18.828;2024-03-06T03:57:49;75837.41;;;-145.55;100.00
51239;BME280;38154;47.548;18.828;2024-03-06T04:00:15;75841.38;;;-145.55;100.00
51239;BME280;38154;47.548;18.828;2024-03-06T04:02:42;75831.44;;;-145.55;100.00
51239;BME280;38154;47.548;18.828;2024-03-06T04:05:08;75841.38;;;-145.55;100.00
51239;BME280;38154;47.548;18.828;2024-03-06T04:07:36;75861.28;;;-145.55;100.00
51239;BME280;38154;47.548;18.828;2024-03-06T04:10:03;75867.25;;;-145.55;100.00
51239;BME280;38154;47.548;18.828;2024-03-06T04:12:29;75881.19;;;-145.55;100.00
51239;BME280;38154;47.548;18.828;2024-03-06T04:14:55;75883.19;;;-145.55;100.00
51239;BME280;38154;47.548;18.828;2024-03-06T04:17:20;75891.13;;;-145.55;100.00
51239;BME280;38154;47.548;18.828;2024-03-06T04:19:46;75897.09;;;-145.55;100.00
51239;BME280;38154;47.548;18.828;2024-03-06T04:22:14;75899.09;;;-145.55;100.00
51239;BME280;38154;47.548;18.828;2024-03-06T04:24:42;75907.06;;;-145.55;100.00
51239;BME280;38154;47.548;18.828;2024-03-06T04:27:08;75903.06;;;-145.55;100.00
51239;BME280;38154;47.548;18.828;2024-03-06T04:29:34;75901.09;;;-145.55;100.00
51239;BME280;38154;47.548;18.828;2024-03-06T04:31:59;75905.06;;;-145.55;100.00
51239;BME280;38154;47.548;18.828;2024-03-06T04:34:25;75913.03;;;-145.55;100.00
51239;BME280;38154;47.548;18.828;2024-03-06T04:36:51;75915.03;;;-145.55;100.00
51239;BME280;38154;47.548;18.828;2024-03-06T04:39:16;75917.00;;;-145.55;100.00
51239;BME280;38154;47.548;18.828;2024-03-06T04:41:42;75913.03;;;-145.55;100.00
51239;BME280;38154;47.548;18.828;2024-03-06T04:44:07;75913.03;;;-145.55;100.00
51239;BME280;38154;47.548;18.828;2024-03-06T04:46:33;75909.06;;;-145.55;100.00
51239;BME280;38154;47.548;18.828;2024-03-06T04:48:59;75911.03;;;-145.55;100.00
51239;BME280;38154;47.548;18.828;2024-03-06T04:51:24;75915.03;;;-145.55;100.00
51239;BME280;38154;47.548;18.828;2024-03-06T04:53:50;75915.03;;;-145.55;100.00
51239;BME280;38154;47.548;18.828;2024-03-06T04:56:16;75915.03;;;-145.55;100.00
51239;BME280;38154;47.548;18.828;2024-03-06T04:58:44;75930.94;;;-145.55;100.00
51239;BME280;38154;47.548;18.828;2024-03-06T05:01:11;75934.94;;;-145.55;100.00
51239;BME280;38154;47.548;18.828;2024-03-06T05:03:37;75936.91;;;-145.55;100.00
51239;BME280;38154;47.548;18.828;2024-03-06T05:06:04;75944.88;;;-145.55;100.00
51239;BME280;38154;47.548;18.828;2024-03-06T05:08:30;75948.84;;;-145.55;100.00
51239;BME280;38154;47.548;18.828;2024-03-06T05:10:56;75948.84;;;-145.55;100.00
51239;BME280;38154;47.548;18.828;2024-03-06T05:13:22;75950.84;;;-145.55;100.00
51239;BME280;38154;47.548;18.828;2024-03-06T05:15:48;75954.81;;;-145.55;100.00
51239;BME280;38154;47.548;18.828;2024-03-06T05:18:14;75930.94;;;-145.55;100.00
51239;BME280;38154;47.548;18.828;2024-03-06T05:20:40;75932.94;;;-145.55;100.00
51239;BME280;38154;47.548;18.828;2024-03-06T05:23:05;75936.91;;;-145.55;100.00
51239;BME280;38154;47.548;18.828;2024-03-06T05:25:31;75936.91;;;-145.55;100.00
51239;BME280;38154;47.548;18.828;2024-03-06T05:27:57;75926.97;;;-145.55;100.00
51239;BME280;38154;47.548;18.828;2024-03-06T05:30:22;75924.97;;;-145.55;100.00
51239;BME280;38154;47.548;18.828;2024-03-06T05:32:48;75919.00;;;-145.55;100.00
51239;BME280;38154;47.548;18.828;2024-03-06T05:35:14;75909.06;;;-145.55;100.00
51239;BME280;38154;47.548;18.828;2024-03-06T05:37:40;75899.09;;;-145.55;100.00
51239;BME280;38154;47.548;18.828;2024-03-06T05:40:05;75893.13;;;-145.55;100.00
51239;BME280;38154;47.548;18.828;2024-03-06T05:42:31;75895.13;;;-145.55;100.00
51239;BME280;38154;47.548;18.828;2024-03-06T05:44:57;75891.13;;;-145.55;100.00
51239;BME280;38154;47.548;18.828;2024-03-06T05:47:26;75871.22;;;-145.55;100.00
51239;BME280;38154;47.548;18.828;2024-03-06T05:49:52;75861.28;;;-145.55;100.00
51239;BME280;38154;47.548;18.828;2024-03-06T05:52:17;75859.28;;;-145.55;100.00
51239;BME280;38154;47.548;18.828;2024-03-06T05:54:43;75813.50;;;-145.55;100.00
51239;BME280;38154;47.548;18.828;2024-03-06T05:57:09;75813.50;;;-145.55;100.00
51239;BME280;38154;47.548;18.828;2024-03-06T05:59:35;75799.59;;;-145.55;100.00
51239;BME280;38154;47.548;18.828;2024-03-06T06:02:00;75783.66;;;-145.55;100.00
51239;BME280;38154;47.548;18.828;2024-03-06T06:04:26;75729.91;;;-145.55;100.00
51239;BME280;38154;47.548;18.828;2024-03-06T06:06:51;75664.25;;;-145.55;100.00
51239;BME280;38154;47.548;18.828;2024-03-06T06:09:17;75632.41;;;-145.55;100.00
51239;BME280;38154;47.548;18.828;2024-03-06T06:11:43;75604.53;;;-145.55;100.00
51239;BME280;38154;47.548;18.828;2024-03-06T06:14:09;75590.59;;;-145.55;100.00
51239;BME280;38154;47.548;18.828;2024-03-06T06:16:36;75572.69;;;-145.55;100.00
51239;BME280;38154;47.548;18.828;2024-03-06T06:19:02;75572.69;;;-145.55;100.00
51239;BME280;38154;47.548;18.828;2024-03-06T06:21:27;75580.66;;;-145.55;100.00
51239;BME280;38154;47.548;18.828;2024-03-06T06:23:53;75570.72;;;-145.55;100.00
51239;BME280;38154;47.548;18.828;2024-03-06T06:26:19;75536.88;;;-145.55;100.00
51239;BME280;38154;47.548;18.828;2024-03-06T06:28:46;75487.13;;;-145.55;100.00
51239;BME280;38154;47.548;18.828;2024-03-06T06:31:12;75395.56;;;-145.55;100.00
51239;BME280;38154;47.548;18.828;2024-03-06T06:33:37;75321.94;;;-145.55;99.21
51239;BME280;38154;47.548;18.828;2024-03-06T06:36:03;75292.09;;;-145.55;98.29
51239;BME280;38154;47.548;18.828;2024-03-06T06:38:29;75192.59;;;-145.55;95.31
51239;BME280;38154;47.548;18.828;2024-03-06T06:40:55;75053.31;;;-145.55;89.96
51239;BME280;38154;47.548;18.828;2024-03-06T06:43:20;74991.63;;;-145.55;87.01
51239;BME280;38154;47.548;18.828;2024-03-06T06:45:46;75033.41;;;-145.55;86.52
51239;BME280;38154;47.548;18.828;2024-03-06T06:48:12;75111.00;;;-145.55;88.96
51239;BME280;38154;47.548;18.828;2024-03-06T06:50:38;75103.03;;;-145.55;90.06
51239;BME280;38154;47.548;18.828;2024-03-06T06:53:03;75089.13;;;-145.55;87.77
51239;BME280;38154;47.548;18.828;2024-03-06T06:55:30;75057.28;;;-145.55;85.40
51239;BME280;38154;47.548;18.828;2024-03-06T06:57:56;74987.63;;;-145.55;81.90
51239;BME280;38154;47.548;18.828;2024-03-06T07:00:21;74955.78;;;-145.55;81.43
51239;BME280;38154;47.548;18.828;2024-03-06T07:02:48;74967.72;;;-145.55;81.02
51239;BME280;38154;47.548;18.828;2024-03-06T07:05:14;74979.66;;;-145.55;81.12
51239;BME280;38154;47.548;18.828;2024-03-06T07:07:40;74977.69;;;-145.55;81.37
51239;BME280;38154;47.548;18.828;2024-03-06T07:10:06;74991.63;;;-145.55;81.44
51239;BME280;38154;47.548;18.828;2024-03-06T07:12:32;74991.63;;;-145.55;79.67
51239;BME280;38154;47.548;18.828;2024-03-06T07:14:58;74947.84;;;-145.55;79.47
51239;BME280;38154;47.548;18.828;2024-03-06T07:17:24;74886.16;;;-145.55;78.38
51239;BME280;38154;47.548;18.828;2024-03-06T07:19:50;74834.41;;;-145.55;75.51
51239;BME280;38154;47.548;18.828;2024-03-06T07:22:18;74784.66;;;-145.55;74.19
51239;BME280;38154;47.548;18.828;2024-03-06T07:24:44;74617.53;;;-145.55;71.11
51239;BME280;38154;47.548;18.828;2024-03-06T07:27:10;74438.47;;;-145.55;64.40
51239;BME280;38154;47.548;18.828;2024-03-06T07:29:35;74273.34;;;-145.55;58.38
51239;BME280;38154;47.548;18.828;2024-03-06T07:32:01;74179.81;;;-145.55;55.23
51239;BME280;38154;47.548;18.828;2024-03-06T07:34:27;74197.72;;;-145.55;54.71
51239;BME280;38154;47.548;18.828;2024-03-06T07:36:53;74108.22;;;-145.55;51.78
51239;BME280;38154;47.548;18.828;2024-03-06T07:39:19;74136.06;;;-145.55;52.20
51239;BME280;38154;47.548;18.828;2024-03-06T07:41:45;74247.47;;;-145.55;54.54
51239;BME280;38154;47.548;18.828;2024-03-06T07:44:11;74255.44;;;-145.55;55.53
51239;BME280;38154;47.548;18.828;2024-03-06T07:46:37;74299.19;;;-145.55;55.71
51239;BME280;38154;47.548;18.828;2024-03-06T07:49:03;74265.38;;;-145.55;55.01
51239;BME280;38154;47.548;18.828;2024-03-06T07:51:29;74167.88;;;-145.55;51.81
51239;BME280;38154;47.548;18.828;2024-03-06T07:53:55;74289.25;;;-145.55;55.12
51239;BME280;38154;47.548;18.828;2024-03-06T07:56:21;74362.88;;;-145.55;58.10
51239;BME280;38154;47.548;18.828;2024-03-06T07:58:47;74438.47;;;-145.55;60.34
51239;BME280;38154;47.548;18.828;2024-03-06T08:01:12;74488.22;;;-145.55;63.99
51239;BME280;38154;47.548;18.828;2024-03-06T08:03:39;74526.00;;;-145.55;66.41
51239;BME280;38154;47.548;18.828;2024-03-06T08:06:05;74535.97;;;-145.55;68.21
51239;BME280;38154;47.548;18.828;2024-03-06T08:08:31;74530.00;;;-145.55;69.10
51239;BME280;38154;47.548;18.828;2024-03-06T08:10:57;74456.38;;;-145.55;67.53
51239;BME280;38154;47.548;18.828;2024-03-06T08:13:23;74358.88;;;-145.55;64.48
51239;BME280;38154;47.548;18.828;2024-03-06T08:15:48;74319.09;;;-145.55;63.17
51239;BME280;38154;47.548;18.828;2024-03-06T08:18:14;74350.94;;;-145.55;64.77
51239;BME280;38154;47.548;18.828;2024-03-06T08:20:40;74430.50;;;-145.55;67.03
51239;BME280;38154;47.548;18.828;2024-03-06T08:23:07;74446.44;;;-145.55;67.22
51239;BME280;38154;47.548;18.828;2024-03-06T08:25:32;74442.44;;;-145.55;66.93
51239;BME280;38154;47.548;18.828;2024-03-06T08:27:58;74398.69;;;-145.55;66.24
51239;BME280;38154;47.548;18.828;2024-03-06T08:30:24;74319.09;;;-145.55;65.41
51239;BME280;38154;47.548;18.828;2024-03-06T08:32:50;74189.78;;;-145.55;62.72
51239;BME280;38154;47.548;18.828;2024-03-06T08:35:16;73931.16;;;-145.55;54.73
51239;BME280;38154;47.548;18.828;2024-03-06T08:37:43;73829.69;;;-145.55;50.95
51239;BME280;38154;47.548;18.828;2024-03-06T08:40:09;73712.31;;;-145.55;48.49
51239;BME280;38154;47.548;18.828;2024-03-06T08:42:43;73676.53;;;-145.55;46.67
51239;BME280;38154;47.548;18.828;2024-03-06T08:45:08;73626.78;;;-145.55;46.04
51239;BME280;38154;47.548;18.828;2024-03-06T08:47:34;73579.06;;;-145.55;45.11
51239;BME280;38154;47.548;18.828;2024-03-06T08:50:00;73475.63;;;-145.55;42.87
51239;BME280;38154;47.548;18.828;2024-03-06T08:52:27;73443.78;;;-145.55;41.29
51239;BME280;38154;47.548;18.828;2024-03-06T08:54:53;73388.09;;;-145.55;39.91
51239;BME280;38154;47.548;18.828;2024-03-06T08:57:18;73324.44;;;-145.55;40.72
51239;BME280;38154;47.548;18.828;2024-03-06T08:59:46;73352.28;;;-145.55;40.37
51239;BME280;38154;47.548;18.828;2024-03-06T09:02:13;73380.13;;;-145.55;40.45
51239;BME280;38154;47.548;18.828;2024-03-06T09:04:42;73431.84;;;-145.55;40.80
51239;BME280;38154;47.548;18.828;2024-03-06T09:07:08;73354.28;;;-145.55;39.00
51239;BME280;38154;47.548;18.828;2024-03-06T09:09:34;73431.84;;;-145.55;40.96
51239;BME280;38154;47.548;18.828;2024-03-06T09:12:00;73469.66;;;-145.55;41.65
51239;BME280;38154;47.548;18.828;2024-03-06T09:14:26;73557.16;;;-145.55;42.03
51239;BME280;38154;47.548;18.828;2024-03-06T09:16:52;73596.97;;;-145.55;41.79
51239;BME280;38154;47.548;18.828;2024-03-06T09:19:17;73624.81;;;-145.55;41.74
51239;BME280;38154;47.548;18.828;2024-03-06T09:21:43;73650.66;;;-145.55;42.80
51239;BME280;38154;47.548;18.828;2024-03-06T09:24:09;73710.34;;;-145.55;42.99
51239;BME280;38154;47.548;18.828;2024-03-06T09:26:35;73736.19;;;-145.55;44.38
51239;BME280;38154;47.548;18.828;2024-03-06T09:29:00;73742.16;;;-145.55;43.43
51239;BME280;38154;47.548;18.828;2024-03-06T09:31:26;73660.59;;;-145.55;45.82
51239;BME280;38154;47.548;18.828;2024-03-06T09:33:53;73598.94;;;-145.55;43.00
51239;BME280;38154;47.548;18.828;2024-03-06T09:36:19;73515.41;;;-145.55;41.59
51239;BME280;38154;47.548;18.828;2024-03-06T09:38:44;73517.38;;;-145.55;42.11
51239;BME280;38154;47.548;18.828;2024-03-06T09:41:10;73567.13;;;-145.55;43.06
51239;BME280;38154;47.548;18.828;2024-03-06T09:43:36;73622.81;;;-145.55;42.67
51239;BME280;38154;47.548;18.828;2024-03-06T09:46:01;73664.59;;;-145.55;43.23
51239;BME280;38154;47.548;18.828;2024-03-06T09:48:28;73766.03;;;-145.55;43.81
51239;BME280;38154;47.548;18.828;2024-03-06T09:50:57;73799.84;;;-145.55;44.29
51239;BME280;38154;47.548;18.828;2024-03-06T09:53:23;73795.88;;;-145.55;44.72
51239;BME280;38154;47.548;18.828;2024-03-06T09:55:49;73666.56;;;-145.55;43.07
51239;BME280;38154;47.548;18.828;2024-03-06T09:58:16;73543.25;;;-145.55;41.38
51239;BME280;38154;47.548;18.828;2024-03-06T10:00:41;73439.81;;;-145.55;39.73
51239;BME280;38154;47.548;18.828;2024-03-06T10:03:08;73380.13;;;-145.55;38.51
51239;BME280;38154;47.548;18.828;2024-03-06T10:05:34;73304.56;;;-145.55;36.83
51239;BME280;38154;47.548;18.828;2024-03-06T10:08:00;73250.84;;;-145.55;36.78
51239;BME280;38154;47.548;18.828;2024-03-06T10:10:26;73314.50;;;-145.55;36.88
51239;BME280;38154;47.548;18.828;2024-03-06T10:12:53;73318.47;;;-145.55;36.86
51239;BME280;38154;47.548;18.828;2024-03-06T10:15:18;73213.06;;;-145.55;36.07
51239;BME280;38154;47.548;18.828;2024-03-06T10:17:44;73213.06;;;-145.55;35.98
51239;BME280;38154;47.548;18.828;2024-03-06T10:20:23;73270.75;;;-145.55;36.59
51239;BME280;38154;47.548;18.828;2024-03-06T10:22:50;73232.94;;;-145.55;35.94
51239;BME280;38154;47.548;18.828;2024-03-06T10:25:20;73242.91;;;-145.55;34.65
51239;BME280;38154;47.548;18.828;2024-03-06T10:30:36;73280.69;;;-145.55;35.92
51239;BME280;38154;47.548;18.828;2024-03-06T10:33:02;73240.91;;;-145.55;35.93
51239;BME280;38154;47.548;18.828;2024-03-06T10:35:28;73240.91;;;-145.55;35.96
51239;BME280;38154;47.548;18.828;2024-03-06T10:37:54;73165.31;;;-145.55;35.15
51239;BME280;38154;47.548;18.828;2024-03-06T10:40:21;73046.00;;;-145.55;34.46
51239;BME280;38154;47.548;18.828;2024-03-06T10:42:48;73097.69;;;-145.55;33.91
51239;BME280;38154;47.548;18.828;2024-03-06T10:45:14;73083.78;;;-145.55;33.85
51239;BME280;38154;47.548;18.828;2024-03-06T10:47:46;73139.47;;;-145.55;34.00
51239;BME280;38154;47.548;18.828;2024-03-06T10:50:15;73199.13;;;-145.55;34.79
51239;BME280;38154;47.548;18.828;2024-03-06T10:52:40;73324.44;;;-145.55;36.66
51239;BME280;38154;47.548;18.828;2024-03-06T10:55:07;73344.34;;;-145.55;37.77
51239;BME280;38154;47.548;18.828;2024-03-06T10:57:36;73205.09;;;-145.55;35.56
51239;BME280;38154;47.548;18.828;2024-03-06T11:00:02;73268.75;;;-145.55;35.53
51239;BME280;38154;47.548;18.828;2024-03-06T11:02:28;73352.28;;;-145.55;36.26
51239;BME280;38154;47.548;18.828;2024-03-06T11:04:54;73378.16;;;-145.55;37.62
51239;BME280;38154;47.548;18.828;2024-03-06T11:07:20;73284.66;;;-145.55;36.01
51239;BME280;38154;47.548;18.828;2024-03-06T11:09:46;73302.56;;;-145.55;35.79
51239;BME280;38154;47.548;18.828;2024-03-06T11:12:33;73234.94;;;-145.55;34.41
51239;BME280;38154;47.548;18.828;2024-03-06T11:15:00;73187.19;;;-145.55;34.59
51239;BME280;38154;47.548;18.828;2024-03-06T11:17:26;73215.06;;;-145.55;35.35
51239;BME280;38154;47.548;18.828;2024-03-06T11:25:08;73185.22;;;-145.55;33.65
51239;BME280;38154;47.548;18.828;2024-03-06T11:27:49;73232.94;;;-145.55;34.58
51239;BME280;38154;47.548;18.828;2024-03-06T11:30:19;73276.72;;;-145.55;35.44
51239;BME280;38154;47.548;18.828;2024-03-06T11:32:59;73296.59;;;-145.55;34.98
51239;BME280;38154;47.548;18.828;2024-03-06T11:35:29;73330.41;;;-145.55;35.38
51239;BME280;38154;47.548;18.828;2024-03-06T11:37:54;73274.72;;;-145.55;34.77
51239;BME280;38154;47.548;18.828;2024-03-06T11:40:26;73205.09;;;-145.55;33.98
51239;BME280;38154;47.548;18.828;2024-03-06T11:42:52;73223.00;;;-145.55;33.87
51239;BME280;38154;47.548;18.828;2024-03-06T11:45:18;73382.13;;;-145.55;35.84
51239;BME280;38154;47.548;18.828;2024-03-06T11:47:59;73519.38;;;-145.55;38.49
51239;BME280;38154;47.548;18.828;2024-03-06T11:50:25;73606.91;;;-145.55;38.70
51239;BME280;38154;47.548;18.828;2024-03-06T11:52:51;73712.31;;;-145.55;39.84
51239;BME280;38154;47.548;18.828;2024-03-06T11:55:17;73783.94;;;-145.55;41.61
51239;BME280;38154;47.548;18.828;2024-03-06T11:57:43;73783.94;;;-145.55;42.53
51239;BME280;38154;47.548;18.828;2024-03-06T12:00:08;73620.81;;;-145.55;40.07
51239;BME280;38154;47.548;18.828;2024-03-06T12:02:36;73589.00;;;-145.55;39.00
51239;BME280;38154;47.548;18.828;2024-03-06T12:05:02;73646.69;;;-145.55;40.67
51239;BME280;38154;47.548;18.828;2024-03-06T12:07:28;73624.81;;;-145.55;40.12
51239;BME280;38154;47.548;18.828;2024-03-06T12:09:54;73640.72;;;-145.55;41.48
51239;BME280;38154;47.548;18.828;2024-03-06T12:12:19;73722.28;;;-145.55;42.58
51239;BME280;38154;47.548;18.828;2024-03-06T12:14:55;73795.88;;;-145.55;43.50
51239;BME280;38154;47.548;18.828;2024-03-06T12:17:21;73869.47;;;-145.55;45.57
51239;BME280;38154;47.548;18.828;2024-03-06T12:19:47;73847.59;;;-145.55;46.24
51239;BME280;38154;47.548;18.828;2024-03-06T12:22:13;73785.94;;;-145.55;45.81
51239;BME280;38154;47.548;18.828;2024-03-06T12:24:44;73724.25;;;-145.55;44.22
51239;BME280;38154;47.548;18.828;2024-03-06T12:27:10;73710.34;;;-145.55;43.71
51239;BME280;38154;47.548;18.828;2024-03-06T12:29:36;73664.59;;;-145.55;42.72
51239;BME280;38154;47.548;18.828;2024-03-06T12:32:03;73666.56;;;-145.55;42.45
51239;BME280;38154;47.548;18.828;2024-03-06T12:34:28;73670.56;;;-145.55;42.83